createdAt,value
2023-08-08T00:01:30.680Z,0.20
2023-08-08T00:03:57.991Z,0.40
2023-08-08T00:06:24.864Z,0.32
2023-08-08T00:08:52.068Z,0.40
2023-08-08T00:11:18.970Z,0.50
2023-08-08T00:13:46.236Z,0.60
2023-08-08T00:16:13.086Z,0.40
2023-08-08T00:18:40.296Z,0.50
2023-08-08T00:21:07.170Z,0.68
2023-08-08T00:23:34.313Z,0.50
2023-08-08T00:26:01.188Z,0.40
2023-08-08T00:28:28.358Z,0.40
2023-08-08T00:30:55.194Z,0.40
2023-08-08T00:33:22.324Z,0.50
2023-08-08T00:35:49.148Z,0.40
2023-08-08T00:38:17.630Z,0.45
2023-08-08T00:40:44.441Z,0.50
2023-08-08T00:43:11.594Z,0.28
2023-08-08T00:45:38.935Z,0.60
2023-08-08T00:48:06.365Z,0.40
2023-08-08T00:50:33.199Z,0.22
2023-08-08T00:53:00.311Z,0.35
2023-08-08T00:55:27.179Z,0.57
2023-08-08T00:57:54.292Z,0.40
2023-08-08T01:00:21.175Z,0.40
2023-08-08T01:02:48.522Z,0.40
2023-08-08T01:05:15.631Z,0.70
2023-08-08T01:07:53.284Z,0.35
2023-08-08T01:10:24.067Z,0.35
2023-08-08T01:12:58.919Z,0.30
2023-08-08T01:15:25.902Z,0.63
2023-08-08T01:17:53.056Z,0.43
2023-08-08T01:20:20.086Z,0.63
2023-08-08T01:22:56.667Z,0.50
2023-08-08T01:25:23.548Z,0.43
2023-08-08T01:27:50.643Z,0.63
2023-08-08T01:30:17.594Z,0.38
2023-08-08T01:32:44.794Z,0.60
2023-08-08T01:35:11.692Z,0.50
2023-08-08T01:37:53.892Z,0.50
2023-08-08T01:40:20.984Z,0.45
2023-08-08T01:42:49.104Z,0.50
2023-08-08T01:45:19.083Z,0.55
2023-08-08T01:47:52.892Z,0.40
2023-08-08T01:50:19.765Z,0.55
2023-08-08T01:52:46.888Z,0.70
2023-08-08T01:55:13.806Z,0.82
2023-08-08T01:57:40.943Z,0.80
2023-08-08T02:00:09.145Z,0.47
2023-08-08T02:02:36.947Z,0.63
2023-08-08T02:05:04.178Z,0.75
2023-08-08T02:07:31.305Z,0.52
2023-08-08T02:09:58.283Z,0.85
2023-08-08T02:12:25.424Z,0.70
2023-08-08T02:14:52.286Z,0.60
2023-08-08T02:17:19.795Z,0.60
2023-08-08T02:19:46.657Z,0.85
2023-08-08T02:22:13.749Z,0.52
2023-08-08T02:24:40.656Z,0.80
2023-08-08T02:27:07.873Z,0.82
2023-08-08T02:29:34.722Z,0.80
2023-08-08T02:32:02.184Z,0.70
2023-08-08T02:34:29.317Z,0.82
2023-08-08T02:36:56.446Z,1.10
2023-08-08T02:39:23.288Z,0.75
2023-08-08T02:41:50.428Z,0.70
2023-08-08T02:44:17.344Z,0.60
2023-08-08T02:46:44.541Z,1.02
2023-08-08T02:49:11.368Z,1.10
2023-08-08T02:51:38.468Z,0.75
2023-08-08T02:54:05.338Z,0.80
2023-08-08T02:56:32.461Z,0.98
2023-08-08T02:58:59.516Z,0.80
2023-08-08T03:01:26.814Z,1.25
2023-08-08T03:03:53.720Z,1.10
2023-08-08T03:06:21.241Z,0.55
2023-08-08T03:08:48.105Z,0.85
2023-08-08T03:11:15.228Z,0.80
2023-08-08T03:13:42.080Z,1.00
2023-08-08T03:16:09.267Z,0.80
2023-08-08T03:18:36.162Z,0.73
2023-08-08T03:21:03.455Z,1.20
2023-08-08T03:23:30.281Z,0.98
2023-08-08T03:25:57.464Z,1.10
2023-08-08T03:28:24.284Z,0.90
2023-08-08T03:30:51.390Z,1.00
2023-08-08T03:33:18.249Z,0.90
2023-08-08T03:35:45.395Z,1.00
2023-08-08T03:38:12.317Z,1.25
2023-08-08T03:40:39.567Z,0.73
2023-08-08T03:43:06.949Z,1.08
2023-08-08T03:45:34.096Z,1.23
2023-08-08T03:48:01.026Z,1.10
2023-08-08T03:50:28.217Z,0.90
2023-08-08T03:52:55.062Z,0.93
2023-08-08T03:55:22.233Z,0.80
2023-08-08T03:57:49.124Z,1.42
2023-08-08T04:00:16.850Z,0.90
2023-08-08T04:02:43.862Z,1.10
2023-08-08T04:05:11.045Z,0.70
2023-08-08T04:07:37.923Z,1.10
2023-08-08T04:10:05.645Z,0.85
2023-08-08T04:12:33.984Z,0.82
2023-08-08T04:15:01.256Z,1.05
2023-08-08T04:17:28.295Z,1.15
2023-08-08T04:19:55.693Z,0.93
2023-08-08T04:22:22.508Z,1.25
2023-08-08T04:24:49.638Z,1.20
2023-08-08T04:27:16.478Z,0.93
2023-08-08T04:29:43.617Z,1.33
2023-08-08T04:32:10.506Z,1.15
2023-08-08T04:34:37.614Z,1.10
2023-08-08T04:37:04.784Z,1.10
2023-08-08T04:39:31.937Z,1.52
2023-08-08T04:41:58.745Z,1.30
2023-08-08T04:44:25.904Z,1.10
2023-08-08T04:46:52.776Z,1.00
2023-08-08T04:49:20.116Z,1.40
2023-08-08T04:51:46.993Z,1.20
2023-08-08T04:54:14.141Z,1.33
2023-08-08T04:56:40.972Z,1.20
2023-08-08T04:59:08.259Z,1.80
2023-08-08T05:01:35.112Z,1.10
2023-08-08T05:04:02.259Z,1.17
2023-08-08T05:06:29.143Z,1.10
2023-08-08T05:08:57.895Z,1.30
2023-08-08T05:11:25.011Z,1.15
2023-08-08T05:13:52.101Z,1.75
2023-08-08T05:16:19.542Z,1.50
2023-08-08T05:18:46.774Z,2.15
2023-08-08T05:21:13.603Z,1.55
2023-08-08T05:23:40.808Z,1.30
2023-08-08T05:26:07.681Z,1.88
2023-08-08T05:28:34.802Z,2.15
2023-08-08T05:31:02.255Z,1.23
2023-08-08T05:33:31.334Z,1.45
2023-08-08T05:35:58.406Z,1.38
2023-08-08T05:38:25.552Z,1.80
2023-08-08T05:40:52.362Z,1.13
2023-08-08T05:43:19.628Z,1.30
2023-08-08T05:45:46.565Z,1.15
2023-08-08T05:48:14.138Z,1.40
2023-08-08T05:50:41.238Z,1.40
2023-08-08T05:53:08.537Z,1.25
2023-08-08T05:55:35.340Z,1.65
2023-08-08T05:58:02.530Z,1.30
2023-08-08T06:00:29.453Z,1.60
2023-08-08T06:02:57.216Z,1.35
2023-08-08T06:05:27.213Z,1.55
2023-08-08T06:07:56.084Z,1.27
2023-08-08T06:10:23.431Z,1.42
2023-08-08T06:12:50.597Z,1.25
2023-08-08T06:15:17.539Z,1.33
2023-08-08T06:17:44.704Z,1.50
2023-08-08T06:20:11.738Z,1.38
2023-08-08T06:22:40.141Z,1.52
2023-08-08T06:25:07.429Z,1.67
2023-08-08T06:27:34.575Z,1.63
2023-08-08T06:30:01.370Z,1.50
2023-08-08T06:32:28.891Z,1.30
2023-08-08T06:34:56.318Z,1.27
2023-08-08T06:37:23.435Z,1.58
2023-08-08T06:39:50.268Z,1.65
2023-08-08T06:42:17.425Z,1.60
2023-08-08T06:44:44.962Z,1.38
2023-08-08T06:47:13.373Z,1.10
2023-08-08T06:49:40.607Z,1.63
2023-08-08T06:52:07.939Z,1.73
2023-08-08T06:54:34.849Z,1.35
2023-08-08T06:57:03.160Z,1.58
2023-08-08T06:59:30.564Z,1.73
2023-08-08T07:01:57.961Z,1.30
2023-08-08T07:04:24.847Z,1.60
2023-08-08T07:06:52.089Z,1.48
2023-08-08T07:09:19.566Z,1.30
2023-08-08T07:11:47.116Z,1.55
2023-08-08T07:14:13.983Z,1.35
2023-08-08T07:16:41.212Z,1.40
2023-08-08T07:19:08.050Z,1.33
2023-08-08T07:21:35.233Z,1.65
2023-08-08T07:24:04.128Z,1.20
2023-08-08T07:26:31.305Z,1.50
2023-08-08T07:28:58.138Z,1.13
2023-08-08T07:31:25.473Z,1.08
2023-08-08T07:33:52.335Z,1.42
2023-08-08T07:36:19.444Z,1.48
2023-08-08T07:38:46.285Z,1.30
2023-08-08T07:41:13.446Z,1.38
2023-08-08T07:43:40.306Z,1.15
2023-08-08T07:46:07.450Z,1.10
2023-08-08T07:48:34.294Z,1.60
2023-08-08T07:51:01.410Z,1.15
2023-08-08T07:53:28.293Z,1.30
2023-08-08T07:55:55.465Z,1.38
2023-08-08T07:58:24.351Z,1.10
2023-08-08T08:00:53.167Z,1.60
2023-08-08T08:03:21.024Z,1.30
2023-08-08T08:05:48.302Z,1.10
2023-08-08T08:08:15.147Z,1.38
2023-08-08T08:10:42.298Z,1.00
2023-08-08T08:13:09.227Z,1.38
2023-08-08T08:15:36.752Z,1.00
2023-08-08T08:18:03.879Z,1.33
2023-08-08T08:20:31.102Z,1.40
2023-08-08T08:22:58.015Z,1.13
2023-08-08T08:25:25.195Z,1.27
2023-08-08T08:27:52.069Z,1.15
2023-08-08T08:30:20.114Z,1.17
2023-08-08T08:32:47.115Z,1.25
2023-08-08T08:35:15.032Z,1.20
2023-08-08T08:37:41.916Z,1.25
2023-08-08T08:40:10.097Z,1.27
2023-08-08T08:42:37.040Z,0.80
2023-08-08T08:45:05.871Z,1.20
2023-08-08T08:47:33.078Z,1.20
2023-08-08T08:50:01.350Z,1.20
2023-08-08T08:52:28.212Z,1.17
2023-08-08T08:54:55.375Z,0.80
2023-08-08T08:57:25.345Z,1.05
2023-08-08T08:59:52.971Z,1.30
2023-08-08T09:02:20.009Z,1.35
2023-08-08T09:04:47.171Z,1.13
2023-08-08T09:07:14.336Z,1.20
2023-08-08T09:09:43.970Z,1.02
2023-08-08T09:12:11.215Z,0.90
2023-08-08T09:14:41.105Z,1.05
2023-08-08T09:17:14.816Z,1.10
2023-08-08T09:19:45.630Z,0.98
2023-08-08T09:22:13.737Z,1.13
2023-08-08T09:24:41.563Z,1.08
2023-08-08T09:27:09.085Z,1.48
2023-08-08T09:29:36.339Z,1.00
2023-08-08T09:32:09.554Z,1.10
2023-08-08T09:34:36.760Z,0.90
2023-08-08T09:37:04.549Z,0.90
2023-08-08T09:39:31.763Z,1.33
2023-08-08T09:41:58.626Z,0.98
2023-08-08T09:44:27.737Z,1.10
2023-08-08T09:46:54.609Z,1.02
2023-08-08T09:49:22.930Z,1.15
2023-08-08T09:51:52.778Z,1.00
2023-08-08T09:54:19.898Z,0.75
2023-08-08T09:56:46.787Z,1.02
2023-08-08T09:59:14.080Z,0.80
2023-08-08T10:01:44.304Z,0.63
2023-08-08T10:04:13.132Z,1.08
2023-08-08T10:06:40.074Z,1.10
2023-08-08T10:09:08.271Z,0.90
2023-08-08T10:11:35.267Z,0.73
2023-08-08T10:14:03.409Z,0.90
2023-08-08T10:16:33.165Z,1.02
2023-08-08T10:19:01.075Z,0.85
2023-08-08T10:21:29.984Z,1.30
2023-08-08T10:24:08.170Z,0.77
2023-08-08T10:26:35.538Z,0.80
2023-08-08T10:29:02.755Z,0.98
2023-08-08T10:31:34.806Z,0.80
2023-08-08T10:34:06.123Z,0.70
2023-08-08T10:36:49.258Z,0.90
2023-08-08T10:39:18.348Z,0.73
2023-08-08T10:41:51.610Z,1.33
2023-08-08T10:44:25.168Z,0.70
2023-08-08T10:46:53.417Z,0.70
2023-08-08T10:49:20.678Z,1.17
2023-08-08T10:51:48.355Z,0.68
2023-08-08T10:54:16.920Z,0.60
2023-08-08T10:56:57.016Z,0.98
2023-08-08T10:59:26.197Z,0.90
2023-08-08T11:01:53.662Z,1.10
2023-08-08T11:04:22.655Z,1.23
2023-08-08T11:06:51.340Z,0.90
2023-08-08T11:09:19.116Z,1.20
2023-08-08T11:11:46.165Z,0.70
2023-08-08T11:14:20.688Z,1.05
2023-08-08T11:16:48.394Z,0.80
2023-08-08T11:19:17.175Z,0.60
2023-08-08T11:21:45.305Z,1.38
2023-08-08T11:24:12.922Z,0.70
2023-08-08T11:26:41.449Z,0.90
2023-08-08T11:29:08.656Z,0.70
2023-08-08T11:31:36.037Z,0.98
2023-08-08T11:34:03.484Z,0.80
2023-08-08T11:36:31.047Z,0.77
2023-08-08T11:38:58.810Z,0.63
2023-08-08T11:41:27.289Z,0.80
2023-08-08T11:43:54.534Z,1.08
2023-08-08T11:46:24.379Z,0.90
2023-08-08T11:48:51.708Z,0.52
2023-08-08T11:51:18.609Z,0.73
2023-08-08T11:53:50.990Z,1.17
2023-08-08T11:56:19.187Z,0.60
2023-08-08T11:58:47.622Z,0.80
2023-08-08T12:01:15.493Z,0.85
2023-08-08T12:03:42.757Z,0.80
2023-08-08T12:06:16.318Z,0.50
2023-08-08T12:08:45.461Z,0.77
2023-08-08T12:11:12.928Z,0.82
2023-08-08T12:13:41.412Z,0.65
2023-08-08T12:16:16.712Z,1.20
2023-08-08T12:18:45.474Z,0.60
2023-08-08T12:21:12.386Z,0.90
2023-08-08T12:23:39.594Z,1.10
2023-08-08T12:26:06.630Z,0.80
2023-08-08T12:28:33.908Z,0.88
2023-08-08T12:31:01.297Z,0.75
2023-08-08T12:33:28.684Z,0.95
2023-08-08T12:35:55.667Z,0.63
2023-08-08T12:38:23.242Z,0.93
2023-08-08T12:40:50.104Z,1.08
2023-08-08T12:43:20.081Z,0.95
2023-08-08T12:45:47.296Z,0.70
2023-08-08T12:48:14.481Z,1.00
2023-08-08T12:50:41.977Z,0.80
2023-08-08T12:53:09.238Z,0.68
2023-08-08T12:55:36.360Z,0.75
2023-08-08T12:58:04.167Z,0.75
2023-08-08T13:00:31.069Z,0.85
2023-08-08T13:02:58.863Z,0.70
2023-08-08T13:05:26.877Z,0.75
2023-08-08T13:07:54.238Z,0.60
2023-08-08T13:10:21.308Z,0.90
2023-08-08T13:12:49.222Z,0.90
2023-08-08T13:15:16.250Z,0.85
2023-08-08T13:17:43.557Z,0.75
2023-08-08T13:20:11.203Z,0.82
2023-08-08T13:22:38.799Z,0.60
2023-08-08T13:25:06.527Z,0.77
2023-08-08T13:27:33.822Z,0.93
2023-08-08T13:30:00.875Z,0.63
2023-08-08T13:32:28.236Z,0.57
2023-08-08T13:34:55.143Z,0.70
2023-08-08T13:37:22.369Z,1.42
2023-08-08T13:39:49.280Z,0.98
2023-08-08T13:42:16.500Z,0.93
2023-08-08T13:44:43.333Z,0.73
2023-08-08T13:47:10.917Z,1.00
2023-08-08T13:49:37.871Z,0.90
2023-08-08T13:52:05.295Z,0.82
2023-08-08T13:54:32.210Z,0.70
2023-08-08T13:56:59.431Z,1.00
2023-08-08T13:59:27.810Z,0.90
2023-08-08T14:01:54.988Z,0.95
2023-08-08T14:04:21.956Z,1.00
2023-08-08T14:06:49.196Z,1.10
2023-08-08T14:09:18.033Z,1.27
2023-08-08T14:11:47.082Z,0.70
2023-08-08T14:14:13.922Z,0.90
2023-08-08T14:16:41.135Z,0.88
2023-08-08T14:19:08.124Z,0.70
2023-08-08T14:21:35.331Z,0.82
2023-08-08T14:24:03.102Z,1.10
2023-08-08T14:26:30.246Z,1.25
2023-08-08T14:28:57.094Z,0.98
2023-08-08T14:31:24.315Z,0.80
2023-08-08T14:33:51.182Z,0.70
2023-08-08T14:36:18.261Z,0.82
2023-08-08T14:38:46.999Z,0.70
2023-08-08T14:41:14.300Z,0.80
2023-08-08T14:43:41.177Z,0.70
2023-08-08T14:46:08.427Z,1.08
2023-08-08T14:48:35.250Z,1.00
2023-08-08T14:51:03.298Z,0.95
2023-08-08T14:53:30.383Z,0.88
2023-08-08T14:55:57.577Z,0.90
2023-08-08T14:58:25.530Z,0.90
2023-08-08T15:00:54.294Z,0.85
2023-08-08T15:03:21.375Z,1.10
2023-08-08T15:05:49.903Z,1.10
2023-08-08T15:08:17.536Z,1.10
2023-08-08T15:10:44.344Z,1.05
2023-08-08T15:13:11.818Z,0.98
2023-08-08T15:15:38.597Z,1.00
2023-08-08T15:18:05.830Z,1.20
2023-08-08T15:20:32.791Z,1.00
2023-08-08T15:22:59.890Z,1.60
2023-08-08T15:25:26.669Z,1.38
2023-08-08T15:27:53.799Z,1.10
2023-08-08T15:30:20.651Z,1.17
2023-08-08T15:32:47.806Z,1.50
2023-08-08T15:35:14.607Z,1.17
2023-08-08T15:37:41.744Z,1.92
2023-08-08T15:40:09.211Z,2.13
2023-08-08T15:42:36.362Z,1.77
2023-08-08T15:45:03.386Z,1.58
2023-08-08T15:47:30.599Z,1.40
2023-08-08T15:49:57.463Z,1.45
2023-08-08T15:52:24.663Z,1.15
2023-08-08T15:54:52.297Z,1.20
2023-08-08T15:57:19.619Z,1.42
2023-08-08T15:59:46.508Z,0.93
2023-08-08T16:02:14.745Z,1.58
2023-08-08T16:04:42.543Z,0.90
2023-08-08T16:07:10.206Z,1.40
2023-08-08T16:09:37.018Z,1.00
2023-08-08T16:12:04.362Z,0.98
2023-08-08T16:14:31.214Z,1.40
2023-08-08T16:16:59.975Z,1.50
2023-08-08T16:19:27.087Z,1.48
2023-08-08T16:21:54.286Z,1.80
2023-08-08T16:24:21.070Z,1.27
2023-08-08T16:26:48.384Z,1.73
2023-08-08T16:29:15.161Z,1.58
2023-08-08T16:31:42.687Z,1.38
2023-08-08T16:34:09.717Z,1.40
2023-08-08T16:36:38.593Z,1.33
2023-08-08T16:39:16.773Z,1.33
2023-08-08T16:41:45.512Z,1.50
2023-08-08T16:44:12.295Z,1.20
2023-08-08T16:46:39.425Z,1.50
2023-08-08T16:49:08.731Z,1.20
2023-08-08T16:51:36.148Z,1.52
2023-08-08T16:54:03.007Z,1.35
2023-08-08T16:56:31.318Z,1.42
2023-08-08T16:58:58.987Z,1.20
2023-08-08T17:01:26.323Z,1.60
2023-08-08T17:03:53.076Z,1.70
2023-08-08T17:06:20.124Z,1.65
2023-08-08T17:08:47.048Z,1.15
2023-08-08T17:11:14.273Z,1.65
2023-08-08T17:13:41.056Z,1.45
2023-08-08T17:16:08.117Z,1.35
2023-08-08T17:18:34.909Z,1.13
2023-08-08T17:21:02.523Z,1.63
2023-08-08T17:23:29.407Z,1.20
2023-08-08T17:25:56.494Z,1.27
2023-08-08T17:28:23.293Z,1.20
2023-08-08T17:30:50.418Z,0.98
2023-08-08T17:33:17.287Z,1.50
2023-08-08T17:35:46.073Z,1.17
2023-08-08T17:38:12.869Z,1.42
2023-08-08T17:40:40.060Z,1.45
2023-08-08T17:43:07.978Z,1.58
2023-08-08T17:45:35.650Z,1.23
2023-08-08T17:48:02.499Z,1.10
2023-08-08T17:50:29.619Z,1.00
2023-08-08T17:52:56.420Z,1.30
2023-08-08T17:55:24.679Z,1.58
2023-08-08T17:57:51.471Z,1.30
2023-08-08T18:00:18.748Z,1.23
2023-08-08T18:02:45.671Z,1.50
2023-08-08T18:05:14.566Z,1.30
2023-08-08T18:07:41.489Z,1.30
2023-08-08T18:10:08.966Z,1.30
2023-08-08T18:12:35.805Z,1.92
2023-08-08T18:15:03.873Z,1.70
2023-08-08T18:17:30.725Z,1.55
2023-08-08T18:19:57.931Z,1.52
2023-08-08T18:22:24.817Z,1.40
2023-08-08T18:24:51.968Z,1.50
2023-08-08T18:27:18.702Z,1.40
2023-08-08T18:29:45.921Z,1.30
2023-08-08T18:32:12.819Z,1.50
2023-08-08T18:34:39.936Z,1.33
2023-08-08T18:37:06.760Z,1.60
2023-08-08T18:39:33.950Z,1.10
2023-08-08T18:42:01.187Z,1.77
2023-08-08T18:44:28.478Z,1.20
2023-08-08T18:46:55.229Z,1.67
2023-08-08T18:49:22.374Z,1.80
2023-08-08T18:51:49.164Z,1.85
2023-08-08T18:54:16.323Z,2.45
2023-08-08T18:56:43.120Z,1.90
2023-08-08T18:59:10.189Z,1.73
2023-08-08T19:01:37.184Z,1.90
2023-08-08T19:04:04.522Z,1.77
2023-08-08T19:06:31.374Z,1.80
2023-08-08T19:08:58.532Z,1.90
2023-08-08T19:11:25.521Z,1.77
2023-08-08T19:13:52.670Z,2.08
2023-08-08T19:16:19.538Z,1.80
2023-08-08T19:18:46.768Z,2.10
2023-08-08T19:21:14.127Z,1.70
2023-08-08T19:23:42.741Z,1.48
2023-08-08T19:26:09.919Z,1.92
2023-08-08T19:28:37.353Z,2.00
2023-08-08T19:31:04.721Z,1.65
2023-08-08T19:33:32.181Z,2.10
2023-08-08T19:36:01.370Z,1.90
2023-08-08T19:38:28.713Z,2.47
2023-08-08T19:40:55.753Z,2.22
2023-08-08T19:43:23.003Z,1.92
2023-08-08T19:45:49.984Z,2.42
2023-08-08T19:48:17.439Z,2.50
2023-08-08T19:50:44.381Z,2.30
2023-08-08T19:53:11.493Z,2.63
2023-08-08T19:55:38.475Z,2.45
2023-08-08T19:58:05.781Z,2.17
2023-08-08T20:00:32.632Z,2.60
2023-08-08T20:02:59.899Z,2.45
2023-08-08T20:05:26.813Z,2.28
2023-08-08T20:07:55.920Z,2.10
2023-08-08T20:10:23.358Z,2.47
2023-08-08T20:12:50.699Z,2.13
2023-08-08T20:15:17.804Z,1.98
2023-08-08T20:17:45.035Z,1.80
2023-08-08T20:20:12.007Z,2.20
2023-08-08T20:22:39.602Z,1.75
2023-08-08T20:25:07.076Z,2.00
2023-08-08T20:27:34.102Z,2.08
2023-08-08T20:30:00.846Z,1.83
2023-08-08T20:32:27.968Z,1.95
2023-08-08T20:34:54.811Z,1.77
2023-08-08T20:37:21.891Z,1.58
2023-08-08T20:39:48.707Z,1.52
2023-08-08T20:42:15.801Z,1.65
2023-08-08T20:44:42.675Z,1.85
2023-08-08T20:47:09.852Z,1.85
2023-08-08T20:49:36.792Z,1.13
2023-08-08T20:52:03.962Z,1.50
2023-08-08T20:54:30.877Z,1.50
2023-08-08T20:56:59.040Z,1.33
2023-08-08T20:59:26.748Z,1.23
2023-08-08T21:01:54.352Z,1.85
2023-08-08T21:04:22.238Z,1.30
2023-08-08T21:06:49.389Z,1.00
2023-08-08T21:09:16.308Z,1.25
2023-08-08T21:11:43.535Z,0.98
2023-08-08T21:14:10.420Z,1.40
2023-08-08T21:16:37.576Z,1.65
2023-08-08T21:19:04.475Z,1.02
2023-08-08T21:21:31.662Z,1.00
2023-08-08T21:23:58.459Z,1.33
2023-08-08T21:26:30.128Z,1.42
2023-08-08T21:29:05.780Z,0.88
2023-08-08T21:31:33.274Z,0.93
2023-08-08T21:34:00.127Z,1.10
2023-08-08T21:36:27.205Z,1.10
2023-08-08T21:38:54.014Z,1.13
2023-08-08T21:41:21.110Z,1.13
2023-08-08T21:43:48.181Z,0.95
2023-08-08T21:46:15.358Z,1.10
2023-08-08T21:48:42.142Z,1.10
2023-08-08T21:51:11.374Z,1.15
2023-08-08T21:53:38.549Z,1.20
2023-08-08T21:56:05.875Z,0.95
2023-08-08T21:58:33.304Z,0.80
2023-08-08T22:01:00.440Z,1.00
2023-08-08T22:03:27.375Z,1.10
2023-08-08T22:05:54.449Z,0.90
2023-08-08T22:08:21.183Z,1.02
2023-08-08T22:10:48.268Z,0.80
2023-08-08T22:13:15.594Z,1.00
2023-08-08T22:15:42.696Z,1.10
2023-08-08T22:18:22.115Z,0.90
2023-08-08T22:20:49.342Z,1.25
2023-08-08T22:23:20.274Z,1.15
2023-08-08T22:25:50.002Z,1.10
2023-08-08T22:28:17.773Z,1.00
2023-08-08T22:30:44.882Z,1.00
2023-08-08T22:33:11.970Z,1.52
2023-08-08T22:35:39.053Z,1.50
2023-08-08T22:38:05.929Z,0.82
2023-08-08T22:40:32.999Z,0.80
2023-08-08T22:42:59.792Z,0.95
2023-08-08T22:47:55.910Z,1.17
2023-08-08T22:50:24.655Z,1.00
2023-08-08T22:52:51.575Z,1.42
2023-08-08T22:55:18.706Z,1.02
2023-08-08T22:57:45.478Z,1.20
2023-08-08T23:00:13.622Z,1.33
2023-08-08T23:02:41.097Z,1.38
2023-08-08T23:05:08.898Z,1.48
2023-08-08T23:07:35.656Z,1.15
2023-08-08T23:10:02.721Z,1.13
2023-08-08T23:12:29.536Z,1.08
2023-08-08T23:14:56.683Z,1.33
2023-08-08T23:17:23.486Z,1.23
2023-08-08T23:19:50.846Z,1.35
2023-08-08T23:22:17.611Z,1.35
2023-08-08T23:24:44.789Z,1.02
2023-08-08T23:27:11.742Z,1.35
2023-08-08T23:29:38.990Z,1.50
2023-08-08T23:32:05.884Z,1.10
2023-08-08T23:34:33.040Z,1.20
2023-08-08T23:37:00.534Z,1.38
2023-08-08T23:39:28.481Z,1.17
2023-08-08T23:41:55.236Z,1.33
2023-08-08T23:44:22.305Z,0.93
2023-08-08T23:46:49.164Z,1.05
2023-08-08T23:49:16.251Z,0.95
2023-08-08T23:51:45.682Z,1.10
2023-08-08T23:54:13.338Z,1.35
2023-08-08T23:56:41.758Z,1.10
2023-08-08T23:59:09.433Z,1.10
